sensor_id;sensor_type;location;lat;lon;timestamp;P1;durP1;ratioP1;P2;durP2;ratioP2
22967;SDS011;11650;48.106;-1.696;2023-04-25T00:02:13;23.43;;;6.43;;
22967;SDS011;11650;48.106;-1.696;2023-04-25T00:04:39;24.20;;;5.97;;
22967;SDS011;11650;48.106;-1.696;2023-04-25T00:07:04;15.53;;;5.93;;
22967;SDS011;11650;48.106;-1.696;2023-04-25T00:09:31;22.33;;;6.27;;
22967;SDS011;11650;48.106;-1.696;2023-04-25T00:11:57;19.70;;;6.03;;
22967;SDS011;11650;48.106;-1.696;2023-04-25T00:14:22;23.10;;;7.30;;
22967;SDS011;11650;48.106;-1.696;2023-04-25T00:16:48;19.30;;;5.63;;
22967;SDS011;11650;48.106;-1.696;2023-04-25T00:19:16;21.33;;;6.10;;
22967;SDS011;11650;48.106;-1.696;2023-04-25T00:21:42;20.13;;;5.90;;
22967;SDS011;11650;48.106;-1.696;2023-04-25T00:24:11;18.83;;;5.90;;
22967;SDS011;11650;48.106;-1.696;2023-04-25T00:26:37;22.07;;;6.53;;
22967;SDS011;11650;48.106;-1.696;2023-04-25T00:29:02;15.37;;;5.80;;
22967;SDS011;11650;48.106;-1.696;2023-04-25T00:31:28;19.23;;;6.40;;
22967;SDS011;11650;48.106;-1.696;2023-04-25T00:33:54;24.43;;;6.10;;
22967;SDS011;11650;48.106;-1.696;2023-04-25T00:36:20;25.73;;;6.77;;
22967;SDS011;11650;48.106;-1.696;2023-04-25T00:38:46;24.63;;;5.90;;
22967;SDS011;11650;48.106;-1.696;2023-04-25T00:41:11;21.57;;;6.40;;
22967;SDS011;11650;48.106;-1.696;2023-04-25T00:43:37;18.83;;;6.20;;
22967;SDS011;11650;48.106;-1.696;2023-04-25T00:46:04;18.27;;;6.23;;
22967;SDS011;11650;48.106;-1.696;2023-04-25T00:48:30;14.63;;;5.47;;
22967;SDS011;11650;48.106;-1.696;2023-04-25T00:50:59;16.00;;;6.27;;
22967;SDS011;11650;48.106;-1.696;2023-04-25T00:53:26;19.80;;;6.10;;
22967;SDS011;11650;48.106;-1.696;2023-04-25T00:55:52;19.10;;;6.40;;
22967;SDS011;11650;48.106;-1.696;2023-04-25T00:58:19;17.53;;;6.90;;
22967;SDS011;11650;48.106;-1.696;2023-04-25T01:00:46;17.47;;;6.17;;
22967;SDS011;11650;48.106;-1.696;2023-04-25T01:03:13;18.10;;;5.97;;
22967;SDS011;11650;48.106;-1.696;2023-04-25T01:05:41;18.13;;;6.13;;
22967;SDS011;11650;48.106;-1.696;2023-04-25T01:08:07;19.17;;;6.50;;
22967;SDS011;11650;48.106;-1.696;2023-04-25T01:10:33;15.63;;;6.03;;
22967;SDS011;11650;48.106;-1.696;2023-04-25T01:12:59;19.57;;;6.50;;
22967;SDS011;11650;48.106;-1.696;2023-04-25T01:15:24;22.53;;;6.43;;
22967;SDS011;11650;48.106;-1.696;2023-04-25T01:17:50;18.80;;;6.47;;
22967;SDS011;11650;48.106;-1.696;2023-04-25T01:20:16;18.50;;;6.37;;
22967;SDS011;11650;48.106;-1.696;2023-04-25T01:22:42;21.83;;;6.20;;
22967;SDS011;11650;48.106;-1.696;2023-04-25T01:25:08;17.87;;;7.20;;
22967;SDS011;11650;48.106;-1.696;2023-04-25T01:27:35;15.97;;;5.47;;
22967;SDS011;11650;48.106;-1.696;2023-04-25T01:30:02;21.63;;;6.63;;
22967;SDS011;11650;48.106;-1.696;2023-04-25T01:32:29;19.83;;;6.87;;
22967;SDS011;11650;48.106;-1.696;2023-04-25T01:35:03;19.90;;;6.10;;
22967;SDS011;11650;48.106;-1.696;2023-04-25T01:37:34;17.33;;;5.87;;
22967;SDS011;11650;48.106;-1.696;2023-04-25T01:40:03;20.67;;;6.33;;
22967;SDS011;11650;48.106;-1.696;2023-04-25T01:42:31;17.97;;;6.43;;
22967;SDS011;11650;48.106;-1.696;2023-04-25T01:44:57;21.97;;;6.43;;
22967;SDS011;11650;48.106;-1.696;2023-04-25T01:47:23;16.50;;;6.50;;
22967;SDS011;11650;48.106;-1.696;2023-04-25T01:49:49;19.47;;;6.73;;
22967;SDS011;11650;48.106;-1.696;2023-04-25T01:52:14;18.67;;;6.37;;
22967;SDS011;11650;48.106;-1.696;2023-04-25T01:54:40;18.57;;;6.00;;
22967;SDS011;11650;48.106;-1.696;2023-04-25T01:57:09;17.33;;;6.10;;
22967;SDS011;11650;48.106;-1.696;2023-04-25T01:59:35;17.77;;;6.13;;
22967;SDS011;11650;48.106;-1.696;2023-04-25T02:02:01;28.50;;;6.27;;
22967;SDS011;11650;48.106;-1.696;2023-04-25T02:04:29;20.27;;;6.20;;
22967;SDS011;11650;48.106;-1.696;2023-04-25T02:06:55;15.43;;;5.67;;
22967;SDS011;11650;48.106;-1.696;2023-04-25T02:09:20;19.27;;;5.93;;
22967;SDS011;11650;48.106;-1.696;2023-04-25T02:11:46;18.60;;;6.70;;
22967;SDS011;11650;48.106;-1.696;2023-04-25T02:14:12;22.20;;;7.00;;
22967;SDS011;11650;48.106;-1.696;2023-04-25T02:16:38;16.83;;;6.27;;
22967;SDS011;11650;48.106;-1.696;2023-04-25T02:19:04;20.93;;;6.43;;
22967;SDS011;11650;48.106;-1.696;2023-04-25T02:21:30;16.07;;;6.27;;
22967;SDS011;11650;48.106;-1.696;2023-04-25T02:23:57;17.23;;;5.87;;
22967;SDS011;11650;48.106;-1.696;2023-04-25T02:26:23;19.07;;;6.50;;
22967;SDS011;11650;48.106;-1.696;2023-04-25T02:28:49;24.47;;;7.17;;
22967;SDS011;11650;48.106;-1.696;2023-04-25T02:31:15;23.43;;;6.80;;
22967;SDS011;11650;48.106;-1.696;2023-04-25T02:33:41;19.67;;;6.50;;
22967;SDS011;11650;48.106;-1.696;2023-04-25T02:36:07;22.30;;;7.33;;
22967;SDS011;11650;48.106;-1.696;2023-04-25T02:38:33;13.53;;;5.90;;
22967;SDS011;11650;48.106;-1.696;2023-04-25T02:40:58;18.27;;;6.70;;
22967;SDS011;11650;48.106;-1.696;2023-04-25T02:43:24;23.27;;;6.90;;
22967;SDS011;11650;48.106;-1.696;2023-04-25T02:45:50;26.10;;;7.57;;
22967;SDS011;11650;48.106;-1.696;2023-04-25T02:48:15;21.40;;;6.83;;
22967;SDS011;11650;48.106;-1.696;2023-04-25T02:50:41;21.80;;;7.50;;
22967;SDS011;11650;48.106;-1.696;2023-04-25T02:53:07;25.33;;;7.43;;
22967;SDS011;11650;48.106;-1.696;2023-04-25T02:55:32;17.07;;;6.90;;
22967;SDS011;11650;48.106;-1.696;2023-04-25T02:57:58;20.10;;;7.37;;
22967;SDS011;11650;48.106;-1.696;2023-04-25T03:00:24;19.03;;;7.37;;
22967;SDS011;11650;48.106;-1.696;2023-04-25T03:02:50;17.73;;;6.60;;
22967;SDS011;11650;48.106;-1.696;2023-04-25T03:05:16;16.13;;;6.67;;
22967;SDS011;11650;48.106;-1.696;2023-04-25T03:07:42;22.40;;;6.97;;
22967;SDS011;11650;48.106;-1.696;2023-04-25T03:10:09;14.50;;;6.37;;
22967;SDS011;11650;48.106;-1.696;2023-04-25T03:12:35;14.63;;;7.07;;
22967;SDS011;11650;48.106;-1.696;2023-04-25T03:15:01;17.07;;;7.20;;
22967;SDS011;11650;48.106;-1.696;2023-04-25T03:17:26;15.20;;;6.70;;
22967;SDS011;11650;48.106;-1.696;2023-04-25T03:19:52;17.03;;;7.40;;
22967;SDS011;11650;48.106;-1.696;2023-04-25T03:22:18;20.30;;;6.60;;
22967;SDS011;11650;48.106;-1.696;2023-04-25T03:24:44;22.03;;;7.30;;
22967;SDS011;11650;48.106;-1.696;2023-04-25T03:27:09;18.03;;;6.63;;
22967;SDS011;11650;48.106;-1.696;2023-04-25T03:29:35;22.50;;;7.37;;
22967;SDS011;11650;48.106;-1.696;2023-04-25T03:32:01;24.53;;;7.53;;
22967;SDS011;11650;48.106;-1.696;2023-04-25T03:34:26;20.60;;;6.70;;
22967;SDS011;11650;48.106;-1.696;2023-04-25T03:36:53;19.77;;;7.03;;
22967;SDS011;11650;48.106;-1.696;2023-04-25T03:39:18;20.73;;;6.80;;
22967;SDS011;11650;48.106;-1.696;2023-04-25T03:41:44;20.70;;;7.37;;
22967;SDS011;11650;48.106;-1.696;2023-04-25T03:44:10;25.27;;;7.37;;
22967;SDS011;11650;48.106;-1.696;2023-04-25T03:46:35;24.33;;;7.37;;
22967;SDS011;11650;48.106;-1.696;2023-04-25T03:49:01;19.07;;;7.00;;
22967;SDS011;11650;48.106;-1.696;2023-04-25T03:51:26;25.13;;;7.83;;
22967;SDS011;11650;48.106;-1.696;2023-04-25T03:53:52;20.70;;;7.37;;
22967;SDS011;11650;48.106;-1.696;2023-04-25T03:56:18;18.93;;;7.10;;
22967;SDS011;11650;48.106;-1.696;2023-04-25T03:58:44;26.23;;;7.23;;
22967;SDS011;11650;48.106;-1.696;2023-04-25T04:01:10;17.93;;;6.67;;
22967;SDS011;11650;48.106;-1.696;2023-04-25T04:03:35;24.20;;;7.57;;
22967;SDS011;11650;48.106;-1.696;2023-04-25T04:06:01;20.53;;;7.30;;
22967;SDS011;11650;48.106;-1.696;2023-04-25T04:08:29;24.27;;;7.37;;
22967;SDS011;11650;48.106;-1.696;2023-04-25T04:10:55;20.80;;;7.43;;
22967;SDS011;11650;48.106;-1.696;2023-04-25T04:13:21;25.43;;;7.17;;
22967;SDS011;11650;48.106;-1.696;2023-04-25T04:15:47;23.67;;;7.00;;
22967;SDS011;11650;48.106;-1.696;2023-04-25T04:18:12;20.83;;;6.63;;
22967;SDS011;11650;48.106;-1.696;2023-04-25T04:20:38;22.80;;;7.67;;
22967;SDS011;11650;48.106;-1.696;2023-04-25T04:23:04;19.33;;;7.60;;
22967;SDS011;11650;48.106;-1.696;2023-04-25T04:25:30;20.70;;;7.30;;
22967;SDS011;11650;48.106;-1.696;2023-04-25T04:27:56;20.73;;;7.50;;
22967;SDS011;11650;48.106;-1.696;2023-04-25T04:30:22;22.67;;;7.93;;
22967;SDS011;11650;48.106;-1.696;2023-04-25T04:32:49;21.60;;;7.70;;
22967;SDS011;11650;48.106;-1.696;2023-04-25T04:35:15;21.40;;;7.40;;
22967;SDS011;11650;48.106;-1.696;2023-04-25T04:37:41;23.13;;;7.03;;
22967;SDS011;11650;48.106;-1.696;2023-04-25T04:40:07;19.67;;;7.20;;
22967;SDS011;11650;48.106;-1.696;2023-04-25T04:42:33;18.57;;;6.53;;
22967;SDS011;11650;48.106;-1.696;2023-04-25T04:44:58;21.93;;;7.87;;
22967;SDS011;11650;48.106;-1.696;2023-04-25T04:47:26;18.83;;;7.17;;
22967;SDS011;11650;48.106;-1.696;2023-04-25T04:49:55;19.70;;;7.30;;
22967;SDS011;11650;48.106;-1.696;2023-04-25T04:52:21;21.93;;;7.53;;
22967;SDS011;11650;48.106;-1.696;2023-04-25T04:54:47;20.17;;;7.63;;
22967;SDS011;11650;48.106;-1.696;2023-04-25T04:57:12;21.40;;;7.20;;
22967;SDS011;11650;48.106;-1.696;2023-04-25T04:59:38;20.90;;;7.80;;
22967;SDS011;11650;48.106;-1.696;2023-04-25T05:02:04;25.73;;;8.03;;
22967;SDS011;11650;48.106;-1.696;2023-04-25T05:04:29;18.90;;;8.30;;
22967;SDS011;11650;48.106;-1.696;2023-04-25T05:06:55;20.13;;;7.67;;
22967;SDS011;11650;48.106;-1.696;2023-04-25T05:09:21;21.37;;;8.30;;
22967;SDS011;11650;48.106;-1.696;2023-04-25T05:11:50;19.80;;;7.33;;
22967;SDS011;11650;48.106;-1.696;2023-04-25T05:14:16;17.67;;;7.63;;
22967;SDS011;11650;48.106;-1.696;2023-04-25T05:16:42;17.87;;;8.10;;
22967;SDS011;11650;48.106;-1.696;2023-04-25T05:19:08;28.07;;;8.70;;
22967;SDS011;11650;48.106;-1.696;2023-04-25T05:21:34;18.67;;;7.20;;
22967;SDS011;11650;48.106;-1.696;2023-04-25T05:24:00;21.07;;;7.10;;
22967;SDS011;11650;48.106;-1.696;2023-04-25T05:26:26;16.13;;;7.60;;
22967;SDS011;11650;48.106;-1.696;2023-04-25T05:28:56;22.30;;;8.07;;
22967;SDS011;11650;48.106;-1.696;2023-04-25T05:31:22;17.33;;;7.83;;
22967;SDS011;11650;48.106;-1.696;2023-04-25T05:33:47;19.73;;;7.90;;
22967;SDS011;11650;48.106;-1.696;2023-04-25T05:36:13;21.03;;;8.93;;
22967;SDS011;11650;48.106;-1.696;2023-04-25T05:38:39;17.43;;;7.97;;
22967;SDS011;11650;48.106;-1.696;2023-04-25T05:41:04;23.83;;;8.73;;
22967;SDS011;11650;48.106;-1.696;2023-04-25T05:43:30;19.47;;;7.73;;
22967;SDS011;11650;48.106;-1.696;2023-04-25T05:45:56;18.30;;;8.10;;
22967;SDS011;11650;48.106;-1.696;2023-04-25T05:48:21;20.50;;;8.70;;
22967;SDS011;11650;48.106;-1.696;2023-04-25T05:50:47;21.80;;;8.03;;
22967;SDS011;11650;48.106;-1.696;2023-04-25T05:53:12;18.03;;;7.67;;
22967;SDS011;11650;48.106;-1.696;2023-04-25T05:55:38;18.77;;;8.40;;
22967;SDS011;11650;48.106;-1.696;2023-04-25T05:58:05;15.50;;;7.50;;
22967;SDS011;11650;48.106;-1.696;2023-04-25T06:00:32;20.20;;;7.73;;
22967;SDS011;11650;48.106;-1.696;2023-04-25T06:02:57;22.23;;;8.67;;
22967;SDS011;11650;48.106;-1.696;2023-04-25T06:05:23;20.23;;;8.83;;
22967;SDS011;11650;48.106;-1.696;2023-04-25T06:07:48;18.67;;;8.20;;
22967;SDS011;11650;48.106;-1.696;2023-04-25T06:10:14;22.67;;;8.57;;
22967;SDS011;11650;48.106;-1.696;2023-04-25T06:12:40;23.83;;;9.30;;
22967;SDS011;11650;48.106;-1.696;2023-04-25T06:15:06;23.37;;;9.47;;
22967;SDS011;11650;48.106;-1.696;2023-04-25T06:17:32;23.27;;;9.33;;
22967;SDS011;11650;48.106;-1.696;2023-04-25T06:19:58;24.43;;;9.17;;
22967;SDS011;11650;48.106;-1.696;2023-04-25T06:22:24;21.60;;;8.77;;
22967;SDS011;11650;48.106;-1.696;2023-04-25T06:24:49;20.10;;;8.03;;
22967;SDS011;11650;48.106;-1.696;2023-04-25T06:27:15;22.63;;;9.33;;
22967;SDS011;11650;48.106;-1.696;2023-04-25T06:29:41;18.40;;;8.30;;
22967;SDS011;11650;48.106;-1.696;2023-04-25T06:32:06;24.23;;;8.33;;
22967;SDS011;11650;48.106;-1.696;2023-04-25T06:34:32;20.23;;;8.30;;
22967;SDS011;11650;48.106;-1.696;2023-04-25T06:36:57;15.47;;;7.87;;
22967;SDS011;11650;48.106;-1.696;2023-04-25T06:39:23;19.50;;;9.20;;
22967;SDS011;11650;48.106;-1.696;2023-04-25T06:41:50;20.57;;;8.80;;
22967;SDS011;11650;48.106;-1.696;2023-04-25T06:44:16;17.77;;;8.20;;
22967;SDS011;11650;48.106;-1.696;2023-04-25T06:46:41;19.40;;;8.40;;
22967;SDS011;11650;48.106;-1.696;2023-04-25T06:49:07;14.87;;;7.63;;
22967;SDS011;11650;48.106;-1.696;2023-04-25T06:51:33;18.40;;;8.23;;
22967;SDS011;11650;48.106;-1.696;2023-04-25T06:53:58;19.63;;;8.17;;
22967;SDS011;11650;48.106;-1.696;2023-04-25T06:56:24;21.27;;;8.27;;
22967;SDS011;11650;48.106;-1.696;2023-04-25T06:58:50;15.53;;;7.10;;
22967;SDS011;11650;48.106;-1.696;2023-04-25T07:01:16;20.00;;;7.87;;
22967;SDS011;11650;48.106;-1.696;2023-04-25T07:03:41;18.23;;;7.97;;
22967;SDS011;11650;48.106;-1.696;2023-04-25T07:06:07;19.87;;;8.47;;
22967;SDS011;11650;48.106;-1.696;2023-04-25T07:08:33;19.80;;;8.67;;
22967;SDS011;11650;48.106;-1.696;2023-04-25T07:10:58;16.80;;;8.20;;
22967;SDS011;11650;48.106;-1.696;2023-04-25T07:13:24;22.50;;;8.10;;
22967;SDS011;11650;48.106;-1.696;2023-04-25T07:15:50;20.27;;;8.17;;
22967;SDS011;11650;48.106;-1.696;2023-04-25T07:18:15;18.90;;;8.33;;
22967;SDS011;11650;48.106;-1.696;2023-04-25T07:20:41;15.33;;;7.43;;
22967;SDS011;11650;48.106;-1.696;2023-04-25T07:23:07;17.23;;;7.53;;
22967;SDS011;11650;48.106;-1.696;2023-04-25T07:25:32;20.97;;;7.57;;
22967;SDS011;11650;48.106;-1.696;2023-04-25T07:27:58;14.37;;;7.53;;
22967;SDS011;11650;48.106;-1.696;2023-04-25T07:30:23;18.07;;;7.37;;
22967;SDS011;11650;48.106;-1.696;2023-04-25T07:32:49;16.80;;;8.43;;
22967;SDS011;11650;48.106;-1.696;2023-04-25T07:35:16;20.80;;;8.57;;
22967;SDS011;11650;48.106;-1.696;2023-04-25T07:37:42;22.43;;;7.87;;
22967;SDS011;11650;48.106;-1.696;2023-04-25T07:40:08;14.33;;;7.80;;
22967;SDS011;11650;48.106;-1.696;2023-04-25T07:42:34;17.33;;;7.37;;
22967;SDS011;11650;48.106;-1.696;2023-04-25T07:45:00;15.03;;;7.67;;
22967;SDS011;11650;48.106;-1.696;2023-04-25T07:47:26;14.33;;;8.07;;
22967;SDS011;11650;48.106;-1.696;2023-04-25T07:49:52;15.27;;;7.60;;
22967;SDS011;11650;48.106;-1.696;2023-04-25T07:52:17;18.53;;;7.97;;
22967;SDS011;11650;48.106;-1.696;2023-04-25T07:54:43;11.57;;;7.67;;
22967;SDS011;11650;48.106;-1.696;2023-04-25T07:57:09;14.70;;;7.70;;
22967;SDS011;11650;48.106;-1.696;2023-04-25T07:59:35;13.97;;;7.63;;
22967;SDS011;11650;48.106;-1.696;2023-04-25T08:02:00;19.00;;;8.47;;
22967;SDS011;11650;48.106;-1.696;2023-04-25T08:04:27;15.03;;;7.43;;
22967;SDS011;11650;48.106;-1.696;2023-04-25T08:06:53;12.73;;;7.10;;
22967;SDS011;11650;48.106;-1.696;2023-04-25T08:09:19;14.57;;;7.67;;
22967;SDS011;11650;48.106;-1.696;2023-04-25T08:11:45;14.73;;;7.60;;
22967;SDS011;11650;48.106;-1.696;2023-04-25T08:14:11;11.67;;;6.70;;
22967;SDS011;11650;48.106;-1.696;2023-04-25T08:16:37;12.47;;;6.70;;
22967;SDS011;11650;48.106;-1.696;2023-04-25T08:19:03;10.63;;;5.93;;
22967;SDS011;11650;48.106;-1.696;2023-04-25T08:21:29;11.33;;;5.77;;
22967;SDS011;11650;48.106;-1.696;2023-04-25T08:23:56;16.83;;;6.60;;
22967;SDS011;11650;48.106;-1.696;2023-04-25T08:26:23;13.03;;;6.70;;
22967;SDS011;11650;48.106;-1.696;2023-04-25T08:28:49;12.97;;;6.03;;
22967;SDS011;11650;48.106;-1.696;2023-04-25T08:31:15;11.90;;;6.30;;
22967;SDS011;11650;48.106;-1.696;2023-04-25T08:33:42;51.60;;;9.13;;
22967;SDS011;11650;48.106;-1.696;2023-04-25T08:36:08;13.47;;;5.80;;
22967;SDS011;11650;48.106;-1.696;2023-04-25T08:38:34;8.30;;;5.00;;
22967;SDS011;11650;48.106;-1.696;2023-04-25T08:41:00;8.43;;;4.33;;
22967;SDS011;11650;48.106;-1.696;2023-04-25T08:43:29;9.30;;;4.50;;
22967;SDS011;11650;48.106;-1.696;2023-04-25T08:45:57;11.67;;;5.10;;
22967;SDS011;11650;48.106;-1.696;2023-04-25T08:48:26;13.00;;;5.27;;
22967;SDS011;11650;48.106;-1.696;2023-04-25T08:50:53;9.00;;;5.20;;
22967;SDS011;11650;48.106;-1.696;2023-04-25T08:53:25;12.50;;;5.30;;
22967;SDS011;11650;48.106;-1.696;2023-04-25T08:55:56;9.33;;;4.93;;
22967;SDS011;11650;48.106;-1.696;2023-04-25T08:58:23;12.57;;;5.60;;
22967;SDS011;11650;48.106;-1.696;2023-04-25T09:00:49;10.57;;;5.37;;
22967;SDS011;11650;48.106;-1.696;2023-04-25T09:03:16;12.57;;;5.60;;
22967;SDS011;11650;48.106;-1.696;2023-04-25T09:05:42;12.23;;;5.53;;
22967;SDS011;11650;48.106;-1.696;2023-04-25T09:08:08;16.60;;;6.13;;
22967;SDS011;11650;48.106;-1.696;2023-04-25T09:10:34;12.93;;;5.77;;
22967;SDS011;11650;48.106;-1.696;2023-04-25T09:15:30;10.50;;;5.70;;
22967;SDS011;11650;48.106;-1.696;2023-04-25T09:17:57;35.27;;;7.53;;
22967;SDS011;11650;48.106;-1.696;2023-04-25T09:20:23;9.00;;;5.10;;
22967;SDS011;11650;48.106;-1.696;2023-04-25T09:22:49;10.20;;;5.10;;
22967;SDS011;11650;48.106;-1.696;2023-04-25T09:25:34;10.80;;;5.47;;
22967;SDS011;11650;48.106;-1.696;2023-04-25T09:28:03;9.57;;;4.40;;
22967;SDS011;11650;48.106;-1.696;2023-04-25T09:30:31;11.00;;;5.00;;
22967;SDS011;11650;48.106;-1.696;2023-04-25T09:33:03;14.97;;;5.37;;
22967;SDS011;11650;48.106;-1.696;2023-04-25T09:35:39;9.30;;;4.40;;
22967;SDS011;11650;48.106;-1.696;2023-04-25T09:38:10;12.60;;;4.60;;
22967;SDS011;11650;48.106;-1.696;2023-04-25T09:40:44;8.20;;;4.30;;
22967;SDS011;11650;48.106;-1.696;2023-04-25T09:43:20;12.20;;;4.60;;
22967;SDS011;11650;48.106;-1.696;2023-04-25T09:45:49;14.20;;;4.27;;
22967;SDS011;11650;48.106;-1.696;2023-04-25T09:48:20;9.87;;;4.33;;
22967;SDS011;11650;48.106;-1.696;2023-04-25T09:51:09;8.30;;;4.17;;
22967;SDS011;11650;48.106;-1.696;2023-04-25T09:53:34;9.17;;;4.30;;
22967;SDS011;11650;48.106;-1.696;2023-04-25T09:56:03;12.17;;;4.40;;
22967;SDS011;11650;48.106;-1.696;2023-04-25T09:58:30;8.73;;;4.03;;
22967;SDS011;11650;48.106;-1.696;2023-04-25T10:00:58;7.83;;;4.30;;
22967;SDS011;11650;48.106;-1.696;2023-04-25T10:03:32;8.33;;;4.63;;
22967;SDS011;11650;48.106;-1.696;2023-04-25T10:06:00;16.60;;;5.30;;
22967;SDS011;11650;48.106;-1.696;2023-04-25T10:08:32;10.30;;;4.77;;
22967;SDS011;11650;48.106;-1.696;2023-04-25T10:11:00;9.93;;;5.17;;
22967;SDS011;11650;48.106;-1.696;2023-04-25T10:13:31;8.20;;;4.00;;
22967;SDS011;11650;48.106;-1.696;2023-04-25T10:15:59;10.17;;;4.20;;
22967;SDS011;11650;48.106;-1.696;2023-04-25T10:18:26;9.43;;;4.30;;
22967;SDS011;11650;48.106;-1.696;2023-04-25T10:20:56;6.83;;;4.10;;
22967;SDS011;11650;48.106;-1.696;2023-04-25T10:23:26;11.43;;;5.07;;
22967;SDS011;11650;48.106;-1.696;2023-04-25T10:25:54;9.07;;;4.17;;
22967;SDS011;11650;48.106;-1.696;2023-04-25T10:28:20;8.90;;;4.03;;
22967;SDS011;11650;48.106;-1.696;2023-04-25T10:33:34;9.33;;;4.50;;
22967;SDS011;11650;48.106;-1.696;2023-04-25T10:36:08;9.07;;;4.27;;
22967;SDS011;11650;48.106;-1.696;2023-04-25T10:38:35;8.17;;;4.87;;
22967;SDS011;11650;48.106;-1.696;2023-04-25T10:41:02;11.33;;;4.40;;
22967;SDS011;11650;48.106;-1.696;2023-04-25T10:46:01;7.80;;;3.43;;
22967;SDS011;11650;48.106;-1.696;2023-04-25T10:48:28;6.27;;;3.70;;
22967;SDS011;11650;48.106;-1.696;2023-04-25T10:51:07;5.43;;;3.10;;
22967;SDS011;11650;48.106;-1.696;2023-04-25T10:53:34;7.40;;;3.63;;
22967;SDS011;11650;48.106;-1.696;2023-04-25T10:56:00;7.70;;;4.20;;
22967;SDS011;11650;48.106;-1.696;2023-04-25T10:58:33;6.73;;;3.57;;
22967;SDS011;11650;48.106;-1.696;2023-04-25T11:01:00;7.03;;;3.77;;
22967;SDS011;11650;48.106;-1.696;2023-04-25T11:03:26;5.20;;;3.57;;
22967;SDS011;11650;48.106;-1.696;2023-04-25T11:05:53;6.67;;;3.93;;
22967;SDS011;11650;48.106;-1.696;2023-04-25T11:08:22;4.73;;;3.20;;
22967;SDS011;11650;48.106;-1.696;2023-04-25T11:11:02;6.93;;;3.50;;
22967;SDS011;11650;48.106;-1.696;2023-04-25T11:13:30;5.23;;;3.00;;
22967;SDS011;11650;48.106;-1.696;2023-04-25T11:15:56;4.63;;;3.33;;
22967;SDS011;11650;48.106;-1.696;2023-04-25T11:18:25;6.90;;;3.97;;
22967;SDS011;11650;48.106;-1.696;2023-04-25T11:20:52;5.57;;;3.73;;
22967;SDS011;11650;48.106;-1.696;2023-04-25T11:23:17;5.60;;;3.20;;
22967;SDS011;11650;48.106;-1.696;2023-04-25T11:25:43;5.30;;;2.63;;
22967;SDS011;11650;48.106;-1.696;2023-04-25T11:28:09;8.80;;;3.77;;
22967;SDS011;11650;48.106;-1.696;2023-04-25T11:30:35;7.67;;;3.17;;
22967;SDS011;11650;48.106;-1.696;2023-04-25T11:33:01;5.40;;;3.13;;
22967;SDS011;11650;48.106;-1.696;2023-04-25T11:35:28;4.77;;;2.80;;
22967;SDS011;11650;48.106;-1.696;2023-04-25T11:37:53;4.87;;;3.27;;
22967;SDS011;11650;48.106;-1.696;2023-04-25T11:40:19;8.40;;;3.43;;
22967;SDS011;11650;48.106;-1.696;2023-04-25T11:42:46;6.20;;;2.97;;
22967;SDS011;11650;48.106;-1.696;2023-04-25T11:45:12;7.17;;;3.67;;
22967;SDS011;11650;48.106;-1.696;2023-04-25T11:47:39;5.53;;;3.50;;
22967;SDS011;11650;48.106;-1.696;2023-04-25T11:50:06;4.93;;;3.33;;
22967;SDS011;11650;48.106;-1.696;2023-04-25T11:52:39;5.67;;;3.17;;
22967;SDS011;11650;48.106;-1.696;2023-04-25T11:55:07;5.83;;;3.73;;
22967;SDS011;11650;48.106;-1.696;2023-04-25T11:57:34;5.77;;;3.83;;
22967;SDS011;11650;48.106;-1.696;2023-04-25T12:00:06;6.53;;;3.77;;
22967;SDS011;11650;48.106;-1.696;2023-04-25T12:02:41;7.20;;;3.50;;
22967;SDS011;11650;48.106;-1.696;2023-04-25T12:05:08;8.37;;;3.70;;
22967;SDS011;11650;48.106;-1.696;2023-04-25T12:07:34;7.43;;;4.10;;
22967;SDS011;11650;48.106;-1.696;2023-04-25T12:10:05;6.43;;;3.80;;
22967;SDS011;11650;48.106;-1.696;2023-04-25T12:12:35;6.63;;;3.60;;
22967;SDS011;11650;48.106;-1.696;2023-04-25T12:15:08;5.70;;;3.70;;
22967;SDS011;11650;48.106;-1.696;2023-04-25T12:17:38;11.33;;;4.00;;
22967;SDS011;11650;48.106;-1.696;2023-04-25T12:20:11;8.17;;;3.47;;
22967;SDS011;11650;48.106;-1.696;2023-04-25T12:22:41;5.47;;;3.67;;
22967;SDS011;11650;48.106;-1.696;2023-04-25T12:25:10;8.27;;;3.80;;
22967;SDS011;11650;48.106;-1.696;2023-04-25T12:27:55;5.43;;;3.47;;
22967;SDS011;11650;48.106;-1.696;2023-04-25T12:33:27;10.50;;;3.80;;
22967;SDS011;11650;48.106;-1.696;2023-04-25T12:35:57;5.90;;;3.60;;
22967;SDS011;11650;48.106;-1.696;2023-04-25T12:38:27;6.40;;;3.70;;
22967;SDS011;11650;48.106;-1.696;2023-04-25T12:40:59;7.17;;;3.20;;
22967;SDS011;11650;48.106;-1.696;2023-04-25T12:43:25;5.50;;;3.37;;
22967;SDS011;11650;48.106;-1.696;2023-04-25T12:45:51;7.23;;;4.03;;
22967;SDS011;11650;48.106;-1.696;2023-04-25T12:48:18;6.73;;;4.00;;
22967;SDS011;11650;48.106;-1.696;2023-04-25T12:50:45;7.03;;;3.80;;
22967;SDS011;11650;48.106;-1.696;2023-04-25T12:53:14;8.13;;;4.23;;
22967;SDS011;11650;48.106;-1.696;2023-04-25T12:55:43;7.50;;;4.23;;
22967;SDS011;11650;48.106;-1.696;2023-04-25T12:58:15;6.70;;;4.07;;
22967;SDS011;11650;48.106;-1.696;2023-04-25T13:00:43;5.70;;;3.80;;
22967;SDS011;11650;48.106;-1.696;2023-04-25T13:03:09;4.77;;;3.47;;
22967;SDS011;11650;48.106;-1.696;2023-04-25T13:05:38;8.23;;;4.40;;
22967;SDS011;11650;48.106;-1.696;2023-04-25T13:08:04;13.17;;;4.50;;
22967;SDS011;11650;48.106;-1.696;2023-04-25T13:10:30;7.00;;;4.43;;
22967;SDS011;11650;48.106;-1.696;2023-04-25T13:12:56;5.70;;;3.87;;
22967;SDS011;11650;48.106;-1.696;2023-04-25T13:15:21;7.47;;;4.40;;
22967;SDS011;11650;48.106;-1.696;2023-04-25T13:17:48;8.13;;;3.87;;
22967;SDS011;11650;48.106;-1.696;2023-04-25T13:20:13;6.43;;;4.17;;
22967;SDS011;11650;48.106;-1.696;2023-04-25T13:22:40;6.67;;;3.93;;
22967;SDS011;11650;48.106;-1.696;2023-04-25T13:25:07;6.43;;;3.23;;
22967;SDS011;11650;48.106;-1.696;2023-04-25T13:27:33;5.27;;;3.23;;
22967;SDS011;11650;48.106;-1.696;2023-04-25T13:30:00;5.70;;;3.20;;
22967;SDS011;11650;48.106;-1.696;2023-04-25T13:32:31;8.10;;;3.77;;
22967;SDS011;11650;48.106;-1.696;2023-04-25T13:34:58;7.37;;;3.50;;
22967;SDS011;11650;48.106;-1.696;2023-04-25T13:37:24;7.27;;;4.00;;
22967;SDS011;11650;48.106;-1.696;2023-04-25T13:39:50;4.00;;;3.50;;
22967;SDS011;11650;48.106;-1.696;2023-04-25T13:42:16;6.90;;;3.77;;
22967;SDS011;11650;48.106;-1.696;2023-04-25T13:44:41;6.60;;;3.47;;
22967;SDS011;11650;48.106;-1.696;2023-04-25T13:47:07;6.77;;;4.07;;
22967;SDS011;11650;48.106;-1.696;2023-04-25T13:49:32;5.20;;;3.60;;
22967;SDS011;11650;48.106;-1.696;2023-04-25T13:51:58;8.33;;;3.60;;
22967;SDS011;11650;48.106;-1.696;2023-04-25T13:54:24;6.00;;;3.53;;
22967;SDS011;11650;48.106;-1.696;2023-04-25T13:56:49;7.90;;;3.97;;
22967;SDS011;11650;48.106;-1.696;2023-04-25T13:59:16;7.57;;;3.30;;
22967;SDS011;11650;48.106;-1.696;2023-04-25T14:01:42;4.53;;;3.47;;
22967;SDS011;11650;48.106;-1.696;2023-04-25T14:04:08;6.23;;;3.40;;
22967;SDS011;11650;48.106;-1.696;2023-04-25T14:06:33;7.13;;;3.53;;
22967;SDS011;11650;48.106;-1.696;2023-04-25T14:09:00;7.90;;;3.60;;
22967;SDS011;11650;48.106;-1.696;2023-04-25T14:11:26;7.30;;;3.17;;
22967;SDS011;11650;48.106;-1.696;2023-04-25T14:13:51;6.53;;;2.80;;
22967;SDS011;11650;48.106;-1.696;2023-04-25T14:16:17;6.40;;;3.70;;
22967;SDS011;11650;48.106;-1.696;2023-04-25T14:18:43;5.57;;;3.60;;
22967;SDS011;11650;48.106;-1.696;2023-04-25T14:21:08;5.80;;;3.70;;
22967;SDS011;11650;48.106;-1.696;2023-04-25T14:23:34;8.73;;;3.63;;
22967;SDS011;11650;48.106;-1.696;2023-04-25T14:26:00;5.67;;;3.30;;
22967;SDS011;11650;48.106;-1.696;2023-04-25T14:28:26;4.63;;;3.13;;
22967;SDS011;11650;48.106;-1.696;2023-04-25T14:30:52;6.20;;;3.10;;
22967;SDS011;11650;48.106;-1.696;2023-04-25T14:33:18;4.57;;;2.90;;
22967;SDS011;11650;48.106;-1.696;2023-04-25T14:35:43;5.67;;;3.00;;